KAFN/AFN METAR and TAF weather

Enter ICAO airport designator
Station Type Date Time Source
KAFN METAR 2019/02/23 22:52 UTC NOAA

KAFN 232252Z AUTO 00000KT 10SM CLR M02/M07 A3028 RMK AO2 SLP275 T10171067


Station Type Date Time Source
KAFN Decoded METAR 2019/02/23 22:52 UTC NOAA

JAFFREY MUNI-SILVER RANCH, NH, United States (KAFN) 42-48N 72-00W 313M
Feb 23, 2019 - 05:52 PM EST / 2019.02.23 2252 UTC
Wind: Calm:0
Visibility: 10 mile(s):0
Sky conditions: clear
Temperature: 28.9 F (-1.7 C)
Dew Point: 19.9 F (-6.7 C)
Relative Humidity: 68%
Pressure (altimeter): 30.28 in. Hg (1025 hPa)
ob: KAFN 232252Z AUTO 00000KT 10SM CLR M02/M07 A3028 RMK AO2 SLP275 T10171067
cycle: 23

Station Type Date Time Source
KAFN TAF UTC NOAA

Error!


Example: see airport list